Time;durP1;ratioP1;P1;durP2;ratioP2;P2;SDS_P1;SDS_P2;PMS_P1;PMS_P2;Temp;Humidity;BMP_temperature;BMP_pressure;BME280_temperature;BME280_humidity;BME280_pressure;Samples;Min_cycle;Max_cycle;Signal;HPM_P1;HPM_P2
2022/05/10 00:00:32;;;;;;;8.63;3.30;;;;;;;12.64;64.58;101167.66;4990680;28;20037;-74
2022/05/10 00:03:00;;;;;;;8.90;5.03;;;;;;;12.67;64.29;101159.31;4990266;28;20175;-75
2022/05/10 00:05:32;;;;;;;11.90;3.15;;;;;;;12.65;64.07;101148.75;4990348;28;20022;-74
2022/05/10 00:07:59;;;;;;;9.63;3.00;;;;;;;12.69;63.48;101135.88;5006147;28;20029;-73
2022/05/10 00:10:25;;;;;;;9.00;3.72;;;;;;;12.75;63.05;101131.69;5006990;28;20427;-75
2022/05/10 00:12:51;;;;;;;8.82;3.05;;;;;;;12.76;62.86;101118.13;4988974;28;20065;-74
2022/05/10 00:15:16;;;;;;;11.15;3.15;;;;;;;12.77;62.63;101118.97;4990335;28;20072;-75
2022/05/10 00:17:43;;;;;;;10.37;3.47;;;;;;;12.73;62.64;101112.25;4990447;28;20048;-74
2022/05/10 00:20:10;;;;;;;;;;;;;;;12.84;62.33;101122.63;4990464;28;20030;-75
2022/05/10 00:22:36;;;;;;;7.85;3.25;;;;;;;12.81;62.07;101106.91;4990002;28;19917;-74
2022/05/10 00:25:03;;;;;;;7.50;3.22;;;;;;;12.79;61.97;101106.25;5007585;28;20037;-75
2022/05/10 00:27:29;;;;;;;12.35;2.92;;;;;;;12.74;62.11;101109.41;4990284;28;20442;-75
2022/05/10 00:29:54;;;;;;;12.37;4.10;;;;;;;12.73;62.18;101118.44;4974010;28;20096;-74
2022/05/10 00:32:21;;;;;;;6.93;2.60;;;;;;;12.67;62.32;101111.94;5006216;28;20044;-74
2022/05/10 00:34:48;;;;;;;7.18;3.40;;;;;;;12.60;62.80;101121.63;5007210;28;20554;-74
2022/05/10 00:37:17;;;;;;;10.27;3.50;;;;;;;12.57;62.97;101127.34;4990137;28;20121;-75
2022/05/10 00:39:42;;;;;;;4.32;2.92;;;;;;;12.53;62.99;101128.66;4989808;28;20026;-74
2022/05/10 00:42:20;;;;;;;9.23;3.00;;;;;;;12.60;62.52;101124.31;5006123;28;20045;-74
2022/05/10 00:44:56;;;;;;;7.35;3.15;;;;;;;12.52;63.04;101126.13;5006978;28;20446;-74
2022/05/10 00:47:34;;;;;;;;;;;;;;;12.48;63.11;101120.28;4990051;28;20030;-74
2022/05/10 00:50:14;;;;;;;11.80;3.28;;;;;;;12.44;63.50;101125.13;5007072;28;20259;-75
2022/05/10 00:53:01;;;;;;;9.13;3.33;;;;;;;12.47;63.59;101142.69;5006785;28;20046;-74
2022/05/10 00:55:55;;;;;;;9.85;3.17;;;;;;;12.43;63.73;101146.69;4989064;28;20046;-75
2022/05/10 00:58:39;;;;;;;7.35;3.22;;;;;;;12.36;63.98;101143.00;4988392;28;20140;-74
2022/05/10 01:01:04;;;;;;;7.57;3.17;;;;;;;12.25;64.83;101153.03;4967794;28;20173;-75
2022/05/10 01:03:37;;;;;;;13.77;3.20;;;;;;;12.28;64.90;101161.75;5004820;28;20116;-74
2022/05/10 01:06:18;;;;;;;6.15;2.70;;;;;;;12.32;64.42;101147.88;4979697;28;20026;-75
2022/05/10 01:08:52;;;;;;;4.70;2.75;;;;;;;12.30;64.23;101135.66;5006768;28;20502;-75
2022/05/10 01:11:29;;;;;;;7.35;3.45;;;;;;;12.28;64.20;101129.63;4989167;28;20030;-74
2022/05/10 01:14:19;;;;;;;9.15;3.28;;;;;;;12.30;64.59;101141.00;5005747;28;20690;-75
2022/05/10 01:16:45;;;;;;;7.28;2.83;;;;;;;12.30;64.29;101128.44;4970859;28;20030;-74
2022/05/10 01:19:13;;;;;;;7.27;3.10;;;;;;;12.27;64.28;101123.44;5006782;28;20442;-74
2022/05/10 01:21:50;;;;;;;12.15;3.42;;;;;;;12.23;64.49;101122.09;4988961;28;20052;-75
2022/05/10 01:24:31;;;;;;;7.88;2.97;;;;;;;12.20;64.71;101128.59;4988892;28;20088;-75
2022/05/10 01:27:32;;;;;;;7.80;4.65;;;;;;;12.18;64.51;101108.34;4984240;28;20042;-75
2022/05/10 01:30:04;;;;;;;6.13;2.80;;;;;;;12.20;64.46;101095.66;5006083;28;20030;-74
2022/05/10 01:35:27;;;;;;;8.63;2.83;;;;;;;12.20;63.70;101077.75;5001655;28;20118;-75
2022/05/10 01:37:59;;;;;;;7.13;3.50;;;;;;;12.14;63.91;101070.38;5006410;28;20037;-74
2022/05/10 01:40:32;;;;;;;7.13;2.85;;;;;;;12.13;63.83;101067.88;4988687;28;20037;-74
2022/05/10 01:43:02;;;;;;;7.72;2.47;;;;;;;12.11;63.65;101049.28;5003420;28;20719;-75
2022/05/10 01:45:35;;;;;;;12.57;4.32;;;;;;;12.07;63.89;101057.81;5006213;28;20080;-75
2022/05/10 01:48:03;;;;;;;10.25;3.65;;;;;;;11.95;64.61;101076.84;5006035;28;20088;-75
2022/05/10 01:50:59;;;;;;;7.22;3.10;;;;;;;12.00;64.31;101073.69;4988651;28;20036;-75
2022/05/10 01:53:32;;;;;;;9.05;3.40;;;;;;;11.91;64.72;101070.13;4987981;28;20041;-74
2022/05/10 01:56:09;;;;;;;13.23;2.92;;;;;;;11.94;64.81;101067.16;5000526;28;20026;-74
2022/05/10 01:58:38;;;;;;;9.00;3.10;;;;;;;11.89;64.89;101076.66;4990404;28;20524;-74
2022/05/10 02:01:09;;;;;;;7.60;3.42;;;;;;;11.91;64.97;101074.66;5008879;28;20442;-74
2022/05/10 02:03:42;;;;;;;8.10;2.80;;;;;;;11.91;65.18;101080.00;5002170;28;20042;-74
2022/05/10 02:06:21;;;;;;;8.80;3.28;;;;;;;11.90;65.09;101081.84;4983049;28;20044;-74
2022/05/10 02:09:11;;;;;;;10.73;2.67;;;;;;;11.88;65.23;101080.34;5003234;28;20475;-74
2022/05/10 02:11:43;;;;;;;8.65;3.35;;;;;;;11.80;65.89;101079.28;4986240;28;20541;-74
2022/05/10 02:14:08;;;;;;;10.55;3.95;;;;;;;11.79;66.12;101087.47;5006817;28;20079;-75
2022/05/10 02:16:49;;;;;;;6.97;3.50;;;;;;;11.76;66.63;101098.50;5003465;28;20053;-75
2022/05/10 02:19:27;;;;;;;8.90;3.10;;;;;;;11.74;67.07;101114.72;5005510;28;20045;-74
2022/05/10 02:22:03;;;;;;;9.13;3.58;;;;;;;11.68;67.40;101118.00;4986460;28;20100;-75
2022/05/10 02:24:34;;;;;;;9.30;3.13;;;;;;;11.66;67.83;101120.03;4987419;28;20044;-75
2022/05/10 02:27:15;;;;;;;11.20;4.05;;;;;;;11.68;67.75;101115.34;4996997;28;20145;-74
2022/05/10 02:29:48;;;;;;;7.47;3.65;;;;;;;11.67;67.41;101102.97;4998197;28;20361;-74
2022/05/10 02:35:10;;;;;;;15.00;5.10;;;;;;;11.76;66.85;101091.31;4997002;28;20402;-75
2022/05/10 02:37:36;;;;;;;6.88;3.10;;;;;;;11.76;66.57;101083.28;4969951;28;20045;-75
2022/05/10 02:40:03;;;;;;;6.13;3.20;;;;;;;11.79;66.26;101060.72;5002759;28;20032;-74
2022/05/10 02:42:29;;;;;;;10.75;3.35;;;;;;;11.72;66.29;101049.84;5001996;28;20285;-74
2022/05/10 02:44:55;;;;;;;9.10;3.03;;;;;;;11.72;66.10;101057.84;4991429;28;20022;-74
2022/05/10 02:47:42;;;;;;;14.07;3.25;;;;;;;11.66;66.83;101069.22;5005944;28;20046;-75
2022/05/10 02:50:24;;;;;;;9.02;4.00;;;;;;;11.68;66.92;101069.88;5002462;28;20045;-74
2022/05/10 02:52:51;;;;;;;7.10;3.20;;;;;;;11.64;67.14;101062.38;4985240;28;20042;-74
2022/05/10 02:55:40;;;;;;;8.02;2.95;;;;;;;11.61;67.33;101056.34;4986363;28;20040;-74
2022/05/10 02:58:33;;;;;;;11.45;3.30;;;;;;;11.59;67.71;101061.00;4962740;28;20050;-74
2022/05/10 03:01:19;;;;;;;12.27;4.82;;;;;;;11.54;68.32;101062.47;4997692;28;20152;-74
2022/05/10 03:03:45;;;;;;;13.18;3.15;;;;;;;11.57;68.22;101079.03;4998053;28;20046;-75
2022/05/10 03:06:21;;;;;;;7.35;2.65;;;;;;;11.56;68.32;101073.84;5006899;28;20383;-75
2022/05/10 03:08:47;;;;;;;9.40;3.08;;;;;;;11.47;68.89;101077.47;5009923;28;20479;-75
2022/05/10 03:11:13;;;;;;;8.73;3.20;;;;;;;11.47;68.92;101077.47;4990868;28;20481;-75
2022/05/10 03:13:38;;;;;;;7.68;3.40;;;;;;;11.49;69.08;101086.19;4985955;28;20034;-74
2022/05/10 03:16:04;;;;;;;10.50;3.47;;;;;;;11.48;69.35;101082.69;4992718;28;20518;-75
2022/05/10 03:18:30;;;;;;;7.55;3.50;;;;;;;11.49;69.59;101096.88;4990054;28;20135;-74
2022/05/10 03:20:55;;;;;;;11.98;3.75;;;;;;;11.47;69.68;101091.72;4984222;28;20037;-74
2022/05/10 03:23:21;;;;;;;8.37;2.77;;;;;;;11.58;69.09;101085.22;5008280;28;20472;-74
2022/05/10 03:25:47;;;;;;;17.52;3.72;;;;;;;11.56;69.24;101082.69;5001353;28;20077;-75
2022/05/10 03:28:13;;;;;;;6.85;2.95;;;;;;;11.52;69.44;101078.69;5010016;28;20092;-75
2022/05/10 03:30:38;;;;;;;7.93;3.67;;;;;;;11.56;69.47;101084.53;4995117;28;20046;-75
2022/05/10 03:33:04;;;;;;;6.50;3.30;;;;;;;11.54;69.48;101089.19;4990561;28;21019;-75
2022/05/10 03:35:29;;;;;;;7.65;3.50;;;;;;;11.47;70.11;101094.38;4989904;28;20025;-75
2022/05/10 03:37:55;;;;;;;11.57;3.73;;;;;;;11.54;70.06;101102.56;4994954;28;20038;-74
2022/05/10 03:40:20;;;;;;;7.77;3.97;;;;;;;11.48;70.40;101093.38;5009156;28;20033;-74
2022/05/10 03:42:50;;;;;;;9.77;3.70;;;;;;;11.46;71.11;101124.78;4987355;28;20038;-75
2022/05/10 03:45:19;;;;;;;12.23;3.55;;;;;;;11.48;71.05;101111.25;5011063;28;20048;-74
2022/05/10 03:47:46;;;;;;;11.70;3.80;;;;;;;11.48;71.07;101117.44;4989596;28;20410;-75
2022/05/10 03:50:13;;;;;;;11.40;3.50;;;;;;;11.51;71.37;101119.78;4999541;28;20165;-74
2022/05/10 03:52:40;;;;;;;12.88;3.70;;;;;;;11.51;71.66;101124.28;5011829;28;20036;-75
2022/05/10 03:55:11;;;;;;;8.43;3.67;;;;;;;11.56;71.94;101127.31;4999887;28;20125;-74
2022/05/10 03:57:37;;;;;;;20.23;4.13;;;;;;;11.59;72.24;101141.22;4972405;28;20035;-75
2022/05/10 04:00:07;;;;;;;5.70;3.20;;;;;;;11.72;72.20;101148.78;5011860;28;20029;-75
2022/05/10 04:02:39;;;;;;;7.00;3.10;;;;;;;11.76;72.27;101149.31;4996331;28;20121;-75
2022/05/10 04:05:07;;;;;;;8.32;3.25;;;;;;;11.84;72.24;101152.84;4990866;28;20446;-74
2022/05/10 04:07:32;;;;;;;10.52;3.60;;;;;;;11.89;72.14;101156.94;5005539;28;20109;-75
2022/05/10 04:09:58;;;;;;;11.00;3.33;;;;;;;11.95;71.80;101151.78;5004203;28;20026;-74
2022/05/10 04:12:23;;;;;;;7.60;3.33;;;;;;;11.95;71.86;101154.44;5005717;28;20476;-75
2022/05/10 04:14:49;;;;;;;24.67;4.90;;;;;;;11.97;72.47;101173.84;4989975;28;20468;-75
2022/05/10 04:17:14;;;;;;;6.93;3.73;;;;;;;11.97;72.57;101165.84;5011804;28;20025;-73
2022/05/10 04:19:40;;;;;;;7.97;3.07;;;;;;;11.89;73.16;101157.75;5004690;28;20052;-74
2022/05/10 04:22:05;;;;;;;7.43;3.30;;;;;;;11.99;73.23;101187.09;5005333;28;20100;-74
2022/05/10 04:24:30;;;;;;;9.43;3.20;;;;;;;12.10;72.47;101165.34;5010275;28;20037;-74
2022/05/10 04:26:56;;;;;;;6.40;3.43;;;;;;;12.14;72.61;101166.72;5007612;28;20079;-75
2022/05/10 04:29:21;;;;;;;10.83;3.70;;;;;;;12.29;72.30;101168.75;4992249;28;20037;-75
2022/05/10 04:31:47;;;;;;;8.50;3.90;;;;;;;12.40;71.80;101161.25;4994579;28;20028;-75
2022/05/10 04:34:12;;;;;;;8.30;3.00;;;;;;;12.41;72.31;101167.47;5015813;28;20475;-74
2022/05/10 04:36:38;;;;;;;11.57;3.80;;;;;;;12.41;72.05;101154.09;4994300;28;20037;-75
2022/05/10 04:39:03;;;;;;;7.30;3.17;;;;;;;12.41;72.43;101164.81;5004150;28;20495;-74
2022/05/10 04:41:32;;;;;;;7.32;3.35;;;;;;;12.59;72.92;101196.78;5004427;28;20100;-75
2022/05/10 04:43:59;;;;;;;8.52;3.05;;;;;;;12.58;72.65;101181.72;4998484;28;20029;-75
2022/05/10 04:46:25;;;;;;;12.05;3.30;;;;;;;12.71;72.16;101175.88;4989532;28;20449;-74
2022/05/10 04:48:52;;;;;;;11.00;3.42;;;;;;;12.52;72.60;101151.06;4977028;28;20234;-75
2022/05/10 04:51:18;;;;;;;6.27;3.33;;;;;;;12.66;73.35;101200.47;5004445;28;20030;-75
2022/05/10 04:53:44;;;;;;;6.78;3.10;;;;;;;12.84;73.17;101206.53;4988217;28;20034;-75
2022/05/10 04:56:09;;;;;;;11.00;4.17;;;;;;;12.66;72.83;101169.16;5008846;28;20021;-75
2022/05/10 04:58:35;;;;;;;10.50;3.50;;;;;;;12.91;72.89;101197.84;4994711;28;20073;-74
2022/05/10 05:01:06;;;;;;;7.95;3.33;;;;;;;13.09;72.43;101198.53;5002952;28;20104;-75
2022/05/10 05:03:33;;;;;;;9.30;4.13;;;;;;;13.31;71.39;101180.94;5011992;28;20041;-75
2022/05/10 05:05:58;;;;;;;8.40;3.55;;;;;;;13.27;71.02;101179.56;4988596;28;20018;-75
2022/05/10 05:08:24;;;;;;;14.20;4.30;;;;;;;13.50;70.66;101177.88;4989182;28;20034;-75
2022/05/10 05:10:50;;;;;;;9.32;3.25;;;;;;;13.51;70.31;101174.19;4989246;28;20806;-74
2022/05/10 05:13:16;;;;;;;7.47;3.70;;;;;;;13.69;69.80;101162.38;4989316;28;20041;-75
2022/05/10 05:15:42;;;;;;;8.23;3.92;;;;;;;13.75;69.76;101172.44;5006509;28;20034;-75
2022/05/10 05:18:09;;;;;;;11.63;3.33;;;;;;;13.71;69.50;101149.66;4989041;28;20045;-75
2022/05/10 05:20:38;;;;;;;10.93;3.53;;;;;;;13.93;68.50;101143.53;4989244;28;20073;-75
2022/05/10 05:23:08;;;;;;;12.13;4.38;;;;;;;14.09;68.73;101182.88;5006727;28;20109;-75
2022/05/10 05:25:36;;;;;;;15.45;3.58;;;;;;;13.81;69.33;101150.25;5006574;28;20445;-75
2022/05/10 05:28:05;;;;;;;8.65;4.20;;;;;;;13.80;70.53;101182.66;5006539;28;20422;-74
2022/05/10 05:30:31;;;;;;;9.68;3.78;;;;;;;13.82;71.06;101205.63;4987770;28;20095;-75
2022/05/10 05:32:57;;;;;;;10.10;5.15;;;;;;;13.70;71.09;101166.75;5009558;28;20471;-75
2022/05/10 05:35:22;;;;;;;10.00;3.60;;;;;;;13.72;71.70;101205.84;5009239;28;20033;-75
2022/05/10 05:37:47;;;;;;;9.47;3.80;;;;;;;14.22;71.19;101243.25;5001549;28;20447;-75
2022/05/10 05:40:15;;;;;;;6.40;3.63;;;;;;;14.38;69.48;101205.56;5002892;28;20038;-74
2022/05/10 05:42:41;;;;;;;8.32;3.72;;;;;;;14.69;68.86;101215.47;4974758;28;20079;-74
2022/05/10 05:45:08;;;;;;;9.05;3.25;;;;;;;14.62;68.92;101204.59;4987204;28;20034;-75
2022/05/10 05:47:34;;;;;;;9.77;3.20;;;;;;;14.78;68.05;101200.97;5002568;28;20028;-75
2022/05/10 05:50:04;;;;;;;6.82;3.60;;;;;;;15.44;66.16;101201.25;4995000;28;20434;-75
2022/05/10 05:52:29;;;;;;;10.38;4.00;;;;;;;16.08;64.67;101219.56;5002559;28;20077;-75
2022/05/10 05:54:55;;;;;;;12.07;4.43;;;;;;;16.57;62.75;101191.13;5010342;28;20115;-75
2022/05/10 05:57:21;;;;;;;7.20;4.17;;;;;;;16.41;61.91;101124.84;5003688;28;20042;-75
2022/05/10 05:59:47;;;;;;;9.77;3.33;;;;;;;15.47;63.27;101071.72;4988716;28;20034;-75
2022/05/10 06:02:15;;;;;;;7.33;4.13;;;;;;;15.45;64.63;101121.34;4991595;28;20033;-75
2022/05/10 06:04:41;;;;;;;13.10;4.32;;;;;;;15.46;65.49;101156.16;4988318;28;20026;-75
2022/05/10 06:07:07;;;;;;;9.45;4.00;;;;;;;15.08;66.88;101142.75;5006063;28;20037;-75
2022/05/10 06:09:32;;;;;;;14.07;3.92;;;;;;;14.92;68.48;101186.75;4986976;28;20079;-75
2022/05/10 06:11:58;;;;;;;7.97;3.50;;;;;;;14.97;69.24;101213.09;4987196;28;20401;-76
2022/05/10 06:14:23;;;;;;;10.43;4.03;;;;;;;14.96;69.62;101220.34;4987640;28;20030;-75
2022/05/10 06:16:49;;;;;;;9.60;4.37;;;;;;;15.01;70.27;101246.69;5002237;28;20448;-75
2022/05/10 06:19:14;;;;;;;9.53;4.33;;;;;;;14.84;70.00;101200.25;5004430;28;20300;-75
2022/05/10 06:21:41;;;;;;;13.00;4.83;;;;;;;15.19;70.17;101249.91;4991831;28;20061;-74
2022/05/10 06:24:12;;;;;;;5.45;3.97;;;;;;;14.95;69.57;101191.75;5003154;28;20017;-75
2022/05/10 06:26:37;;;;;;;9.65;3.80;;;;;;;14.75;71.27;101217.47;5013549;28;20029;-75
2022/05/10 06:29:03;;;;;;;10.27;3.57;;;;;;;14.77;72.57;101253.03;4991371;28;20461;-75
2022/05/10 06:31:28;;;;;;;8.00;3.88;;;;;;;15.02;72.62;101275.22;4988911;28;20111;-76
2022/05/10 06:33:55;;;;;;;10.05;3.63;;;;;;;15.17;71.46;101249.25;5003876;28;20026;-75
2022/05/10 06:36:21;;;;;;;7.82;4.05;;;;;;;15.06;71.85;101230.84;4996023;28;20030;-76
2022/05/10 06:38:47;;;;;;;13.93;4.07;;;;;;;15.11;72.05;101238.38;4993980;28;20032;-77
2022/05/10 06:41:12;;;;;;;12.50;4.57;;;;;;;15.11;72.76;101259.88;4996291;28;20064;-75
2022/05/10 06:43:38;;;;;;;7.90;4.03;;;;;;;15.75;71.33;101289.13;5004962;28;20088;-76
2022/05/10 06:46:15;;;;;;;12.07;4.03;;;;;;;15.91;70.02;101229.72;4981715;28;20359;-75
2022/05/10 06:48:40;;;;;;;7.00;4.70;;;;;;;15.96;70.03;101243.44;5007900;28;20049;-75
2022/05/10 06:51:07;;;;;;;8.23;3.65;;;;;;;16.45;70.45;101298.59;4987431;28;20072;-75
2022/05/10 06:53:33;;;;;;;9.20;4.03;;;;;;;15.83;70.46;101227.13;5008304;28;20044;-75
2022/05/10 06:55:59;;;;;;;9.13;3.97;;;;;;;15.96;70.97;101242.63;5008220;28;20395;-76
2022/05/10 06:58:24;;;;;;;7.60;3.83;;;;;;;15.83;72.13;101244.09;5008490;28;20049;-74
2022/05/10 07:00:50;;;;;;;12.43;5.23;;;;;;;15.84;72.52;101247.63;4991553;28;20042;-75
2022/05/10 07:03:22;;;;;;;10.37;3.83;;;;;;;16.12;72.69;101280.13;4991112;28;20797;-75
2022/05/10 07:05:47;;;;;;;13.80;4.50;;;;;;;16.56;69.42;101227.22;4990228;28;20392;-76
2022/05/10 07:08:13;;;;;;;12.60;4.50;;;;;;;16.78;68.51;101215.41;4990902;28;20029;-75
2022/05/10 07:10:38;;;;;;;13.50;4.18;;;;;;;16.73;68.06;101190.91;4985270;28;20063;-76
2022/05/10 07:13:04;;;;;;;9.80;4.50;;;;;;;16.77;68.82;101212.94;5016418;28;20033;-75
2022/05/10 07:15:30;;;;;;;11.10;5.30;;;;;;;16.82;67.27;101160.13;5013443;28;20042;-76
2022/05/10 07:17:56;;;;;;;9.18;3.70;;;;;;;17.13;69.63;101283.00;4992186;28;20036;-76
2022/05/10 07:20:21;;;;;;;10.43;4.65;;;;;;;17.46;67.33;101240.13;4993766;28;20042;-76
2022/05/10 07:22:47;;;;;;;7.13;3.80;;;;;;;17.48;67.08;101221.88;4985586;28;20468;-76
2022/05/10 07:25:16;;;;;;;9.20;4.15;;;;;;;17.73;66.80;101233.06;4996610;28;20030;-76
2022/05/10 07:27:41;;;;;;;10.85;4.90;;;;;;;17.77;67.07;101241.59;4989705;28;20483;-76
2022/05/10 07:30:10;;;;;;;9.02;4.18;;;;;;;17.82;66.60;101214.03;4994739;28;20084;-76
2022/05/10 07:32:36;;;;;;;8.80;4.20;;;;;;;18.11;66.12;101221.88;4990019;28;20042;-76
2022/05/10 07:35:03;;;;;;;9.75;4.80;;;;;;;18.44;66.16;101261.72;4990364;28;20045;-76
2022/05/10 07:37:29;;;;;;;12.20;4.85;;;;;;;18.90;64.36;101231.31;5006004;28;20030;-76
2022/05/10 07:39:55;;;;;;;12.77;4.70;;;;;;;19.68;62.32;101248.81;4996264;28;20265;-75
2022/05/10 07:42:20;;;;;;;14.93;6.37;;;;;;;18.69;62.58;101105.16;5009053;28;20030;-76
2022/05/10 07:44:46;;;;;;;6.53;4.07;;;;;;;19.37;63.85;101251.13;4996674;28;20030;-76
2022/05/10 07:47:11;;;;;;;8.63;4.03;;;;;;;19.17;62.65;101171.78;5016397;28;20591;-76
2022/05/10 07:49:36;;;;;;;9.53;4.63;;;;;;;19.41;62.95;101216.34;4995318;28;20037;-76
2022/05/10 07:52:04;;;;;;;10.47;4.63;;;;;;;19.37;63.56;101226.75;5011358;28;20049;-76
2022/05/10 07:54:29;;;;;;;11.82;4.40;;;;;;;19.02;66.01;101244.22;4999470;28;20048;-75
2022/05/10 07:56:55;;;;;;;8.37;4.53;;;;;;;19.09;65.70;101242.38;4993777;28;20029;-75
2022/05/10 07:59:21;;;;;;;7.35;4.47;;;;;;;19.55;64.37;101257.75;4990266;28;20390;-77
2022/05/10 08:01:46;;;;;;;11.70;4.07;;;;;;;19.45;62.32;101173.41;4994086;28;20037;-76
2022/05/10 08:04:12;;;;;;;8.93;4.50;;;;;;;19.50;62.33;101165.50;5012192;28;20362;-76
2022/05/10 08:06:37;;;;;;;6.80;5.43;;;;;;;19.53;62.21;101187.59;4979036;28;20041;-76
2022/05/10 08:09:03;;;;;;;11.40;5.00;;;;;;;19.55;62.17;101157.56;4994334;28;20033;-76
2022/05/10 08:11:28;;;;;;;9.10;5.20;;;;;;;19.70;61.56;101160.06;5010760;28;20140;-76
2022/05/10 08:13:53;;;;;;;6.37;4.53;;;;;;;19.85;62.29;101214.00;5005891;28;20030;-76
2022/05/10 08:16:19;;;;;;;9.97;5.00;;;;;;;19.64;61.73;101150.88;5005952;28;20549;-76
2022/05/10 08:18:48;;;;;;;10.82;5.38;;;;;;;19.16;63.49;101146.59;5010191;28;20038;-76
2022/05/10 08:21:15;;;;;;;7.10;4.55;;;;;;;19.23;64.95;101214.25;4992917;28;20021;-75
2022/05/10 08:23:40;;;;;;;13.85;5.78;;;;;;;19.31;64.64;101202.38;5005014;28;20643;-76
2022/05/10 08:26:06;;;;;;;9.77;5.07;;;;;;;19.63;63.74;101214.22;4994973;28;20092;-76
2022/05/10 08:28:34;;;;;;;;;;;;;;;19.44;64.93;101220.50;4989515;28;20034;-77
2022/05/10 08:31:00;;;;;;;12.43;5.18;;;;;;;19.72;64.39;101236.53;4998097;28;19917;-75
2022/05/10 08:33:29;;;;;;;8.35;4.93;;;;;;;19.52;64.36;101202.16;4985434;28;20045;-75
2022/05/10 08:35:56;;;;;;;8.70;4.85;;;;;;;19.36;64.67;101183.63;4993949;28;20546;-74
2022/05/10 08:38:24;;;;;;;8.98;4.85;;;;;;;19.15;64.73;101160.31;4992405;28;20257;-76
2022/05/10 08:41:13;;;;;;;12.88;5.30;;;;;;;19.12;65.93;101198.63;5004908;28;20053;-75
2022/05/10 08:43:54;;;;;;;8.65;4.68;;;;;;;19.26;65.38;101200.31;4970934;28;20042;-76
2022/05/10 08:46:26;;;;;;;12.77;5.60;;;;;;;19.34;65.80;101216.34;4970364;28;20038;-75
2022/05/10 08:48:58;;;;;;;8.23;4.60;;;;;;;19.21;66.82;101231.75;4988653;28;20034;-76
2022/05/10 08:51:26;;;;;;;10.25;4.80;;;;;;;19.24;66.61;101207.78;4994320;28;20037;-76
2022/05/10 08:53:51;;;;;;;9.83;4.63;;;;;;;19.23;68.15;101260.28;5010096;28;20018;-75
2022/05/10 08:56:39;;;;;;;6.57;4.75;;;;;;;19.65;67.37;101281.75;4991100;28;20042;-76
2022/05/10 08:59:29;;;;;;;9.43;4.45;;;;;;;19.59;66.77;101246.28;4981126;28;20045;-75
2022/05/10 09:02:07;;;;;;;10.32;5.30;;;;;;;19.16;67.39;101198.00;5001166;28;20041;-76
2022/05/10 09:05:14;;;;;;;9.68;4.43;;;;;;;19.33;67.51;101235.50;4996256;28;20025;-77
2022/05/10 09:08:02;;;;;;;17.17;5.35;;;;;;;19.11;66.92;101175.34;4943445;28;20902;-75
2022/05/10 09:10:44;;;;;;;9.93;4.43;;;;;;;19.16;68.76;101235.91;5003253;28;20129;-76
2022/05/10 09:13:16;;;;;;;15.50;4.95;;;;;;;19.02;68.17;101190.94;5012019;28;20165;-75
2022/05/10 09:16:09;;;;;;;8.52;5.05;;;;;;;19.66;66.94;101237.34;4994146;28;20030;-75
2022/05/10 09:18:42;;;;;;;8.43;5.05;;;;;;;19.78;66.00;101211.28;4988272;28;20044;-74
2022/05/10 09:21:16;;;;;;;14.07;5.25;;;;;;;20.17;63.63;101180.53;4989354;28;20029;-76
2022/05/10 09:24:13;;;;;;;12.43;4.88;;;;;;;20.21;63.76;101189.06;5004234;28;20072;-75
2022/05/10 09:26:45;;;;;;;9.07;4.97;;;;;;;20.20;64.38;101190.09;5005957;28;20458;-77
2022/05/10 09:29:10;;;;;;;7.85;4.70;;;;;;;21.16;62.68;101246.09;5010483;28;20033;-77
2022/05/10 09:34:47;;;;;;;8.35;4.63;;;;;;;23.07;57.18;101191.63;5006641;28;20116;-77
2022/05/10 09:37:27;;;;;;;7.95;4.75;;;;;;;23.09;55.71;101101.53;4992534;28;20112;-77
2022/05/10 09:39:56;;;;;;;9.13;4.78;;;;;;;23.16;54.98;101078.56;5010333;28;20038;-77
2022/05/10 09:42:42;;;;;;;5.80;4.43;;;;;;;23.00;53.46;100983.97;4974248;28;20116;-77
2022/05/10 09:45:26;;;;;;;12.18;5.20;;;;;;;22.54;54.85;100988.34;4983460;28;20058;-75
2022/05/10 09:47:58;;;;;;;9.82;5.28;;;;;;;21.98;55.35;100946.97;4989712;28;20423;-76
2022/05/10 09:50:31;;;;;;;11.85;5.80;;;;;;;21.58;55.45;100901.38;4989928;28;20033;-77
2022/05/10 09:53:07;;;;;;;10.73;5.05;;;;;;;21.56;57.52;101020.31;5002990;28;20272;-76
2022/05/10 09:55:33;;;;;;;12.48;5.85;;;;;;;21.14;56.73;100927.03;5002416;28;20034;-76
2022/05/10 09:58:20;;;;;;;12.20;5.47;;;;;;;21.73;56.96;101023.25;5019631;28;20025;-77
2022/05/10 10:00:52;;;;;;;14.00;5.85;;;;;;;23.41;53.83;101085.63;4993996;28;20497;-77
2022/05/10 10:03:25;;;;;;;9.57;4.45;;;;;;;25.15;50.92;101118.84;4998137;28;20060;-77
2022/05/10 10:05:54;;;;;;;7.57;5.43;;;;;;;25.00;48.01;100916.50;5012023;28;20488;-76
2022/05/10 10:08:36;;;;;;;11.85;5.70;;;;;;;25.49;46.20;100895.47;4989438;28;20057;-74
2022/05/10 10:11:02;;;;;;;11.00;5.95;;;;;;;24.26;47.98;100788.63;5001138;28;20064;-75
2022/05/10 10:13:30;;;;;;;12.17;6.67;;;;;;;24.09;48.85;100832.28;5002324;28;20065;-75
2022/05/10 10:15:56;;;;;;;10.38;5.45;;;;;;;24.32;49.47;100924.81;4989696;28;20456;-76
2022/05/10 10:18:42;;;;;;;9.88;5.25;;;;;;;23.74;49.17;100812.41;4992823;28;20022;-74
2022/05/10 10:21:11;;;;;;;12.13;5.18;;;;;;;24.43;47.59;100822.94;4988184;28;20076;-77
2022/05/10 10:23:52;;;;;;;12.00;5.75;;;;;;;24.22;47.29;100763.75;4971518;28;20026;-77
2022/05/10 10:26:31;;;;;;;9.63;4.75;;;;;;;23.90;48.63;100771.75;4990736;28;20092;-77
2022/05/10 10:29:32;;;;;;;7.65;5.00;;;;;;;23.52;48.35;100708.75;4999078;28;20046;-77
2022/05/10 10:32:07;;;;;;;16.75;5.28;;;;;;;23.78;48.81;100804.56;5004876;28;20395;-76
2022/05/10 10:34:47;;;;;;;14.43;4.90;;;;;;;24.02;47.70;100776.03;4988749;28;20042;-75
2022/05/10 10:37:22;;;;;;;10.95;5.13;;;;;;;23.79;47.14;100676.19;4988426;28;20057;-77
2022/05/10 10:40:07;;;;;;;10.73;4.45;;;;;;;24.13;46.69;100730.63;5006051;28;20042;-77
2022/05/10 10:42:39;;;;;;;12.75;3.65;;;;;;;24.33;46.47;100751.88;5002949;28;20034;-75
2022/05/10 10:45:11;;;;;;;9.25;4.45;;;;;;;24.72;45.61;100757.25;4978943;28;20435;-76
2022/05/10 10:47:55;;;;;;;13.88;5.20;;;;;;;24.54;46.31;100761.19;5008315;28;20389;-76
2022/05/10 10:50:30;;;;;;;11.18;3.78;;;;;;;24.59;47.03;100798.63;4996113;28;20029;-77
2022/05/10 10:52:58;;;;;;;6.80;5.07;;;;;;;24.63;46.38;100751.44;4989037;28;20120;-77
2022/05/10 10:55:40;;;;;;;8.68;3.97;;;;;;;25.22;45.70;100812.72;4991582;28;20061;-77
2022/05/10 10:58:36;;;;;;;8.75;3.53;;;;;;;25.13;44.74;100732.28;4991870;28;20441;-76
2022/05/10 11:01:17;;;;;;;13.20;4.07;;;;;;;24.90;43.44;100629.66;5007296;28;20029;-78
2022/05/10 11:03:54;;;;;;;6.43;2.70;;;;;;;25.07;42.61;100603.03;4990377;28;20034;-76
2022/05/10 11:06:24;;;;;;;9.65;2.97;;;;;;;25.06;41.53;100530.38;5006337;28;20041;-75
2022/05/10 11:09:24;;;;;;;8.93;2.70;;;;;;;25.59;41.12;100602.28;4987795;28;20030;-74
2022/05/10 11:12:10;;;;;;;7.55;2.97;;;;;;;25.68;40.33;100531.50;4997227;28;20040;-73
2022/05/10 11:14:46;;;;;;;6.35;2.88;;;;;;;24.93;41.21;100436.09;5006168;28;20052;-75
2022/05/10 11:17:28;;;;;;;4.78;2.97;;;;;;;25.87;41.46;100622.09;5007627;28;20061;-73
2022/05/10 11:20:15;;;;;;;6.43;2.80;;;;;;;26.08;41.09;100612.91;4973028;28;20125;-75
2022/05/10 11:22:49;;;;;;;5.15;3.35;;;;;;;25.63;41.86;100577.97;5027700;28;20114;-76
2022/05/10 11:25:28;;;;;;;6.57;2.53;;;;;;;26.13;41.28;100655.03;4993768;28;20399;-75
2022/05/10 11:28:20;;;;;;;9.48;2.63;;;;;;;26.90;40.00;100678.78;4970870;28;20038;-74
2022/05/10 11:31:32;;;;;;;5.15;2.67;;;;;;;26.36;40.01;100514.97;5005108;28;20490;-75
2022/05/10 11:34:13;;;;;;;6.88;2.72;;;;;;;25.61;40.77;100457.13;4981627;28;20037;-75
2022/05/10 11:36:41;;;;;;;8.75;2.63;;;;;;;25.78;41.11;100509.69;4987976;28;20837;-75
2022/05/10 11:39:29;;;;;;;12.23;2.28;;;;;;;25.90;40.98;100539.56;4984399;28;20488;-76
2022/05/10 11:42:21;;;;;;;8.00;2.50;;;;;;;25.64;42.08;100565.97;5023841;28;20029;-73
2022/05/10 11:45:05;;;;;;;5.95;3.13;;;;;;;25.08;42.05;100446.28;5007686;28;20029;-76
2022/05/10 11:47:54;;;;;;;5.85;2.92;;;;;;;25.36;42.30;100528.94;5007572;28;20586;-74
2022/05/10 11:50:27;;;;;;;6.60;2.80;;;;;;;24.99;42.66;100483.38;4990659;28;20434;-74